createdAt,value
2023-03-02T00:00:47.923Z,1.95
2023-03-02T00:03:18.284Z,1.95
2023-03-02T00:05:49.103Z,1.89
2023-03-02T00:08:18.093Z,2.00
2023-03-02T00:10:44.974Z,1.90
2023-03-02T00:13:13.918Z,1.70
2023-03-02T00:15:41.423Z,1.47
2023-03-02T00:18:08.079Z,1.73
2023-03-02T00:20:36.001Z,1.90
2023-03-02T00:23:02.648Z,1.66
2023-03-02T00:25:29.408Z,1.61
2023-03-02T00:27:56.272Z,1.53
2023-03-02T00:30:22.882Z,1.47
2023-03-02T00:32:49.660Z,1.02
2023-03-02T00:35:16.460Z,0.72
2023-03-02T00:37:43.400Z,1.08
2023-03-02T00:40:11.284Z,1.20
2023-03-02T00:42:38.198Z,1.34
2023-03-02T00:45:06.147Z,1.36
2023-03-02T00:47:36.813Z,1.19
2023-03-02T00:50:05.373Z,1.05
2023-03-02T00:52:33.320Z,1.12
2023-03-02T00:54:59.937Z,1.28
2023-03-02T00:57:26.586Z,1.27
2023-03-02T00:59:53.229Z,0.94
2023-03-02T01:02:21.743Z,0.99
2023-03-02T01:04:49.371Z,1.21
2023-03-02T01:07:18.554Z,1.11
2023-03-02T01:09:45.542Z,1.11
2023-03-02T01:12:12.881Z,1.18
2023-03-02T01:14:43.196Z,1.10
2023-03-02T01:17:10.550Z,1.12
2023-03-02T01:19:37.943Z,1.09
2023-03-02T01:22:04.932Z,1.00
2023-03-02T01:24:32.359Z,1.21
2023-03-02T01:26:58.980Z,1.16
2023-03-02T01:29:26.383Z,1.39
2023-03-02T01:31:53.185Z,1.25
2023-03-02T01:34:19.922Z,1.51
2023-03-02T01:36:46.573Z,1.45
2023-03-02T01:39:16.741Z,1.36
2023-03-02T01:41:44.757Z,1.19
2023-03-02T01:44:36.057Z,1.17
2023-03-02T01:47:05.270Z,1.16
2023-03-02T01:49:37.386Z,1.43
2023-03-02T01:52:04.306Z,1.47
2023-03-02T01:54:31.055Z,1.47
2023-03-02T01:57:02.383Z,1.56
2023-03-02T01:59:31.520Z,1.65
2023-03-02T02:02:01.736Z,1.48
2023-03-02T02:04:30.856Z,1.69
2023-03-02T02:07:02.791Z,1.85
2023-03-02T02:09:38.917Z,1.90
2023-03-02T02:12:06.046Z,1.72
2023-03-02T02:14:33.048Z,1.80
2023-03-02T02:16:59.792Z,1.63
2023-03-02T02:19:50.995Z,1.50
2023-03-02T02:22:30.487Z,1.58
2023-03-02T02:25:02.245Z,1.19
2023-03-02T02:27:33.776Z,1.28
2023-03-02T02:30:04.689Z,1.43
2023-03-02T02:32:36.535Z,1.38
2023-03-02T02:35:07.369Z,1.27
2023-03-02T02:37:39.949Z,1.43
2023-03-02T02:40:12.654Z,1.37
2023-03-02T02:42:44.423Z,1.05
2023-03-02T02:45:26.151Z,1.23
2023-03-02T02:47:53.840Z,1.32
2023-03-02T02:50:28.024Z,1.19
2023-03-02T02:53:18.123Z,1.05
2023-03-02T02:55:48.042Z,1.22
2023-03-02T02:58:40.136Z,1.52
2023-03-02T03:01:07.059Z,1.50
2023-03-02T03:03:39.362Z,1.62
2023-03-02T03:06:13.626Z,1.58
2023-03-02T03:08:46.353Z,1.38
2023-03-02T03:11:15.972Z,1.38
2023-03-02T03:13:44.453Z,1.46
2023-03-02T03:16:14.852Z,1.40
2023-03-02T03:18:47.172Z,1.59
2023-03-02T03:21:13.820Z,1.60
2023-03-02T03:23:40.427Z,1.56
2023-03-02T03:26:07.170Z,1.47
2023-03-02T03:28:33.989Z,1.40
2023-03-02T03:31:00.710Z,1.40
2023-03-02T03:33:27.423Z,1.53
2023-03-02T03:35:54.197Z,1.29
2023-03-02T03:38:20.848Z,1.29
2023-03-02T03:40:47.471Z,1.45
2023-03-02T03:43:15.263Z,1.50
2023-03-02T03:45:41.888Z,1.42
2023-03-02T03:48:08.655Z,1.44
2023-03-02T03:50:35.603Z,1.47
2023-03-02T03:53:03.910Z,1.58
2023-03-02T03:55:31.225Z,1.45
2023-03-02T03:57:57.857Z,1.56
2023-03-02T04:00:24.601Z,1.48
2023-03-02T04:02:51.336Z,1.56
2023-03-02T04:05:18.092Z,1.52
2023-03-02T04:07:44.762Z,1.49
2023-03-02T04:10:12.422Z,1.58
2023-03-02T04:12:41.400Z,1.61
2023-03-02T04:15:10.582Z,1.52
2023-03-02T04:17:37.181Z,1.47
2023-03-02T04:20:07.728Z,1.42
2023-03-02T04:22:34.332Z,1.17
2023-03-02T04:25:01.209Z,1.02
2023-03-02T04:27:27.835Z,1.29
2023-03-02T04:29:54.451Z,0.97
2023-03-02T04:32:21.095Z,1.03
2023-03-02T04:34:47.719Z,1.10
2023-03-02T04:37:16.013Z,1.22
2023-03-02T04:39:43.261Z,1.05
2023-03-02T04:42:09.877Z,0.83
2023-03-02T04:44:36.466Z,0.97
2023-03-02T04:47:03.075Z,0.98
2023-03-02T04:49:29.678Z,1.01
2023-03-02T04:51:56.303Z,0.92
2023-03-02T04:54:26.246Z,0.81
2023-03-02T04:56:53.771Z,0.78
2023-03-02T04:59:26.110Z,0.25
2023-03-02T05:01:58.706Z,0.50
2023-03-02T05:04:26.239Z,0.47
2023-03-02T05:06:52.932Z,0.59
2023-03-02T05:09:20.083Z,0.89
2023-03-02T05:11:47.059Z,1.04
2023-03-02T05:14:13.934Z,0.78
2023-03-02T05:16:42.147Z,0.59
2023-03-02T05:19:11.556Z,0.85
2023-03-02T05:21:38.352Z,0.81
2023-03-02T05:24:05.593Z,0.95
2023-03-02T05:26:32.720Z,1.19
2023-03-02T05:28:59.554Z,1.30
2023-03-02T05:31:36.263Z,1.40
2023-03-02T05:34:04.925Z,1.48
2023-03-02T05:36:32.206Z,1.47
2023-03-02T05:38:59.059Z,1.19
2023-03-02T05:41:26.006Z,1.37
2023-03-02T05:43:53.174Z,1.31
2023-03-02T05:46:22.007Z,1.16
2023-03-02T05:48:49.263Z,1.06
2023-03-02T05:51:15.900Z,1.15
2023-03-02T05:53:42.552Z,1.12
2023-03-02T05:56:09.306Z,1.16
2023-03-02T05:58:36.055Z,1.42
2023-03-02T06:01:02.696Z,1.38
2023-03-02T06:03:29.534Z,1.36
2023-03-02T06:05:56.287Z,1.36
2023-03-02T06:08:23.334Z,1.54
2023-03-02T06:10:50.977Z,1.55
2023-03-02T06:13:18.085Z,1.66
2023-03-02T06:15:44.876Z,1.70
2023-03-02T06:18:12.682Z,1.63
2023-03-02T06:20:40.491Z,1.47
2023-03-02T06:23:07.157Z,1.65
2023-03-02T06:25:35.986Z,1.81
2023-03-02T06:28:02.581Z,1.88
2023-03-02T06:30:29.407Z,1.91
2023-03-02T06:32:56.083Z,2.03
2023-03-02T06:35:24.231Z,2.05
2023-03-02T06:37:51.360Z,2.16
2023-03-02T06:40:18.403Z,2.17
2023-03-02T06:42:45.018Z,2.19
2023-03-02T06:45:12.106Z,2.26
2023-03-02T06:47:39.414Z,2.24
2023-03-02T06:50:06.623Z,2.21
2023-03-02T06:52:33.629Z,2.33
2023-03-02T06:55:00.263Z,2.36
2023-03-02T06:57:33.731Z,2.49
2023-03-02T07:00:02.394Z,2.39
2023-03-02T07:02:29.000Z,2.45
2023-03-02T07:04:55.664Z,2.54
2023-03-02T07:07:22.248Z,2.65
2023-03-02T07:09:48.880Z,2.45
2023-03-02T07:12:15.455Z,2.61
2023-03-02T07:14:42.076Z,2.72
2023-03-02T07:17:09.000Z,2.71
2023-03-02T07:19:35.726Z,2.83
2023-03-02T07:22:02.321Z,2.92
2023-03-02T07:24:28.971Z,2.84
2023-03-02T07:26:55.556Z,2.85
2023-03-02T07:29:22.180Z,2.92
2023-03-02T07:31:48.778Z,2.96
2023-03-02T07:34:16.385Z,2.79
2023-03-02T07:36:42.999Z,3.05
2023-03-02T07:39:09.595Z,2.61
2023-03-02T07:41:36.399Z,2.69
2023-03-02T07:44:03.112Z,2.64
2023-03-02T07:46:29.815Z,2.91
2023-03-02T07:48:56.537Z,2.92
2023-03-02T07:51:23.184Z,2.92
2023-03-02T07:53:49.777Z,2.92
2023-03-02T07:56:16.562Z,2.98
2023-03-02T07:58:43.342Z,3.09
2023-03-02T08:01:10.137Z,3.10
2023-03-02T08:03:37.378Z,3.21
2023-03-02T08:06:09.209Z,3.30
2023-03-02T08:08:36.822Z,3.35
2023-03-02T08:11:12.858Z,3.41
2023-03-02T08:13:40.069Z,3.44
2023-03-02T08:16:08.627Z,3.54
2023-03-02T08:18:37.418Z,3.73
2023-03-02T08:21:05.168Z,3.91
2023-03-02T08:23:31.811Z,3.87
2023-03-02T08:25:58.460Z,3.99
2023-03-02T08:28:25.112Z,3.85
2023-03-02T08:30:58.756Z,4.10
2023-03-02T08:33:27.139Z,4.06
2023-03-02T08:35:58.651Z,3.58
2023-03-02T08:38:26.128Z,4.01
2023-03-02T08:40:53.222Z,4.21
2023-03-02T08:43:20.865Z,4.41
2023-03-02T08:45:52.301Z,4.88
2023-03-02T08:48:20.468Z,4.59
2023-03-02T08:51:04.239Z,4.72
2023-03-02T08:53:34.334Z,4.66
2023-03-02T08:56:01.077Z,4.75
2023-03-02T08:58:28.292Z,4.91
2023-03-02T09:00:55.006Z,4.81
2023-03-02T09:03:21.810Z,5.04
2023-03-02T09:05:48.561Z,5.71
2023-03-02T09:08:15.204Z,5.72
2023-03-02T09:10:41.819Z,5.72
2023-03-02T09:13:08.778Z,6.00
2023-03-02T09:15:35.758Z,6.40
2023-03-02T09:18:02.444Z,6.23
2023-03-02T09:20:29.061Z,6.28
2023-03-02T09:22:55.731Z,6.72
2023-03-02T09:25:22.431Z,6.72
2023-03-02T09:27:49.079Z,6.75
2023-03-02T09:30:16.144Z,7.21
2023-03-02T09:32:42.994Z,7.63
2023-03-02T09:35:09.967Z,7.58
2023-03-02T09:37:38.904Z,7.68
2023-03-02T09:40:15.886Z,7.92
2023-03-02T09:42:51.142Z,8.22
2023-03-02T09:45:23.831Z,8.42
2023-03-02T09:48:03.860Z,8.68
2023-03-02T09:50:37.088Z,8.77
2023-03-02T09:53:22.185Z,9.34
2023-03-02T09:55:54.215Z,9.27
2023-03-02T09:58:25.613Z,9.72
2023-03-02T10:00:52.543Z,9.78
2023-03-02T10:03:22.626Z,9.85
2023-03-02T10:05:51.911Z,9.83
2023-03-02T10:08:21.978Z,10.11
2023-03-02T10:11:22.381Z,10.31
2023-03-02T10:14:07.008Z,10.49
2023-03-02T10:16:47.144Z,10.38
2023-03-02T10:19:21.376Z,10.80
2023-03-02T10:21:57.374Z,10.77
2023-03-02T10:24:35.847Z,11.27
2023-03-02T10:27:12.381Z,11.31
2023-03-02T10:29:39.009Z,11.15
2023-03-02T10:32:30.150Z,11.52
2023-03-02T10:34:58.633Z,12.35
2023-03-02T10:37:29.705Z,12.35
2023-03-02T10:39:56.914Z,12.60
2023-03-02T10:42:37.701Z,13.18
2023-03-02T10:45:13.551Z,12.68
2023-03-02T10:47:40.149Z,12.68
2023-03-02T10:50:21.670Z,12.97
2023-03-02T10:52:59.946Z,12.63
2023-03-02T10:55:27.999Z,12.82
2023-03-02T10:58:29.592Z,13.16
2023-03-02T11:01:07.322Z,13.27
2023-03-02T11:03:34.283Z,13.55
2023-03-02T11:06:22.619Z,13.55
2023-03-02T11:09:06.618Z,13.70
2023-03-02T11:11:34.207Z,13.26
2023-03-02T11:14:17.035Z,13.38
2023-03-02T11:16:44.069Z,13.34
2023-03-02T11:19:40.152Z,13.68
2023-03-02T11:22:12.184Z,13.64
2023-03-02T11:24:50.273Z,13.85
2023-03-02T11:27:26.945Z,14.10
2023-03-02T11:30:02.928Z,14.25
2023-03-02T11:32:36.576Z,13.95
2023-03-02T11:35:05.486Z,14.04
2023-03-02T11:37:52.962Z,14.11
2023-03-02T11:40:23.789Z,13.98
2023-03-02T11:42:51.214Z,14.31
2023-03-02T11:45:22.716Z,14.16
2023-03-02T11:48:06.317Z,14.26
2023-03-02T11:50:37.467Z,14.48
2023-03-02T11:53:07.826Z,14.42
2023-03-02T11:55:45.558Z,14.82
2023-03-02T11:58:18.395Z,14.49
2023-03-02T12:00:46.964Z,14.86
2023-03-02T12:03:16.658Z,14.92
2023-03-02T12:05:46.306Z,15.16
2023-03-02T12:08:19.094Z,15.47
2023-03-02T12:11:06.406Z,15.44
2023-03-02T12:13:39.122Z,15.75
2023-03-02T12:16:37.103Z,16.01
2023-03-02T12:19:26.785Z,16.00
2023-03-02T12:22:00.707Z,16.31
2023-03-02T12:24:35.980Z,16.67
2023-03-02T12:27:04.552Z,16.37
2023-03-02T12:29:45.760Z,16.30
2023-03-02T12:32:31.193Z,16.50
2023-03-02T12:35:00.711Z,16.78
2023-03-02T12:37:40.437Z,16.59
2023-03-02T12:40:31.288Z,16.46
2023-03-02T12:43:36.007Z,16.28
2023-03-02T12:46:20.962Z,15.94
2023-03-02T12:48:59.624Z,16.25
2023-03-02T12:51:29.448Z,16.50
2023-03-02T12:54:07.123Z,16.51
2023-03-02T12:56:34.458Z,16.76
2023-03-02T12:59:01.267Z,16.64
2023-03-02T13:01:30.665Z,16.69
2023-03-02T13:03:58.420Z,16.89
2023-03-02T13:06:30.079Z,16.82
2023-03-02T13:08:59.509Z,16.57
2023-03-02T13:11:32.182Z,16.24
2023-03-02T13:14:00.196Z,16.45
2023-03-02T13:16:29.880Z,16.12
2023-03-02T13:18:59.925Z,16.25
2023-03-02T13:21:38.267Z,16.51
2023-03-02T13:24:32.563Z,16.52
2023-03-02T13:27:20.605Z,16.75
2023-03-02T13:29:48.232Z,16.74
2023-03-02T13:32:43.336Z,16.81
2023-03-02T13:35:26.803Z,16.59
2023-03-02T13:38:04.801Z,16.74
2023-03-02T13:40:31.495Z,16.87
2023-03-02T13:42:58.527Z,16.85
2023-03-02T13:45:31.111Z,16.39
2023-03-02T13:48:13.814Z,16.32
2023-03-02T13:50:40.440Z,16.19
2023-03-02T13:53:07.263Z,16.10
2023-03-02T13:55:35.287Z,16.13
2023-03-02T13:58:02.548Z,16.03
2023-03-02T14:00:33.942Z,15.89
2023-03-02T14:03:01.333Z,16.00
2023-03-02T14:05:33.403Z,16.02
2023-03-02T14:08:00.805Z,16.01
2023-03-02T14:10:27.657Z,15.83
2023-03-02T14:12:59.730Z,15.55
2023-03-02T14:15:26.637Z,15.54
2023-03-02T14:17:53.322Z,15.37
2023-03-02T14:20:20.745Z,15.31
2023-03-02T14:22:48.665Z,15.38
2023-03-02T14:25:15.486Z,15.38
2023-03-02T14:27:43.158Z,15.38
2023-03-02T14:30:20.783Z,15.15
2023-03-02T14:32:47.962Z,15.15
2023-03-02T14:35:16.650Z,15.28
2023-03-02T14:37:47.060Z,15.29
2023-03-02T14:40:21.583Z,15.44
2023-03-02T14:42:48.660Z,15.44
2023-03-02T14:45:16.525Z,15.16
2023-03-02T14:47:43.167Z,14.95
2023-03-02T14:50:11.783Z,15.08
2023-03-02T14:52:48.235Z,14.76
2023-03-02T14:55:25.838Z,14.67
2023-03-02T14:57:57.295Z,14.48
2023-03-02T15:00:24.977Z,14.30
2023-03-02T15:02:51.987Z,14.26
2023-03-02T15:05:18.987Z,14.34
2023-03-02T15:07:45.876Z,14.27
2023-03-02T15:10:18.410Z,14.20
2023-03-02T15:12:45.398Z,14.16
2023-03-02T15:15:12.871Z,14.00
2023-03-02T15:17:40.841Z,13.86
2023-03-02T15:20:08.624Z,13.61
2023-03-02T15:22:35.248Z,13.57
2023-03-02T15:25:01.936Z,13.49
2023-03-02T15:27:28.547Z,13.38
2023-03-02T15:29:56.869Z,13.32
2023-03-02T15:32:23.704Z,13.31
2023-03-02T15:34:50.312Z,13.19
2023-03-02T15:37:17.162Z,13.07
2023-03-02T15:39:44.618Z,13.13
2023-03-02T15:42:13.494Z,12.79
2023-03-02T15:44:40.607Z,12.75
2023-03-02T15:47:07.320Z,12.66
2023-03-02T15:49:33.985Z,12.66
2023-03-02T15:52:00.655Z,12.46
2023-03-02T15:54:28.771Z,12.36
2023-03-02T15:56:55.704Z,12.37
2023-03-02T15:59:25.493Z,12.19
2023-03-02T16:01:53.007Z,12.14
2023-03-02T16:04:19.890Z,12.01
2023-03-02T16:06:46.578Z,12.00
2023-03-02T16:09:13.176Z,11.94
2023-03-02T16:11:39.787Z,12.05
2023-03-02T16:14:06.443Z,11.85
2023-03-02T16:16:33.286Z,11.77
2023-03-02T16:19:00.117Z,11.76
2023-03-02T16:21:28.680Z,11.70
2023-03-02T16:24:03.142Z,11.65
2023-03-02T16:26:31.859Z,11.69
2023-03-02T16:28:59.672Z,11.58
2023-03-02T16:31:28.126Z,11.39
2023-03-02T16:33:57.534Z,11.37
2023-03-02T16:36:24.159Z,11.48
2023-03-02T16:38:50.844Z,11.34
2023-03-02T16:41:20.428Z,11.21
2023-03-02T16:43:53.197Z,11.19
2023-03-02T16:46:21.618Z,11.21
2023-03-02T16:48:49.157Z,10.92
2023-03-02T16:51:18.169Z,10.90
2023-03-02T16:53:45.245Z,10.94
2023-03-02T16:56:13.021Z,10.58
2023-03-02T16:58:41.416Z,10.60
2023-03-02T17:01:10.477Z,10.50
2023-03-02T17:03:37.175Z,10.32
2023-03-02T17:06:06.566Z,10.24
2023-03-02T17:08:33.647Z,10.14
2023-03-02T17:11:00.435Z,10.07
2023-03-02T17:13:27.203Z,10.16
2023-03-02T17:15:54.488Z,10.06
2023-03-02T17:18:21.144Z,10.00
2023-03-02T17:20:52.138Z,9.95
2023-03-02T17:23:18.855Z,9.92
2023-03-02T17:25:45.504Z,9.83
2023-03-02T17:28:14.894Z,9.92
2023-03-02T17:30:42.303Z,9.72
2023-03-02T17:33:09.638Z,9.84
2023-03-02T17:35:36.648Z,9.91
2023-03-02T17:38:03.301Z,9.87
2023-03-02T17:40:30.133Z,10.12
2023-03-02T17:42:57.827Z,10.15
2023-03-02T17:45:27.327Z,10.00
2023-03-02T17:47:56.435Z,9.86
2023-03-02T17:50:23.593Z,9.72
2023-03-02T17:52:51.402Z,9.65
2023-03-02T17:55:18.211Z,9.73
2023-03-02T17:57:44.887Z,9.77
2023-03-02T18:00:16.187Z,9.90
2023-03-02T18:02:42.953Z,9.70
2023-03-02T18:05:10.219Z,9.69
2023-03-02T18:07:37.420Z,9.42
2023-03-02T18:10:05.487Z,9.35
2023-03-02T18:12:32.254Z,9.15
2023-03-02T18:14:58.877Z,9.01
2023-03-02T18:17:25.616Z,8.97
2023-03-02T18:19:52.357Z,8.90
2023-03-02T18:22:19.515Z,8.86
2023-03-02T18:24:47.537Z,8.90
2023-03-02T18:27:14.226Z,9.13
2023-03-02T18:29:40.874Z,9.21
2023-03-02T18:32:07.607Z,9.30
2023-03-02T18:34:34.236Z,9.28
2023-03-02T18:37:00.854Z,9.06
2023-03-02T18:39:27.465Z,8.94
2023-03-02T18:41:54.099Z,8.74
2023-03-02T18:44:20.812Z,9.00
2023-03-02T18:46:47.478Z,8.83
2023-03-02T18:49:14.084Z,8.87
2023-03-02T18:51:40.747Z,8.55
2023-03-02T18:54:07.666Z,8.53
2023-03-02T18:56:34.336Z,8.56
2023-03-02T18:59:01.047Z,8.57
2023-03-02T19:01:30.905Z,8.51
2023-03-02T19:03:58.799Z,8.50
2023-03-02T19:06:25.412Z,8.23
2023-03-02T19:08:52.059Z,8.35
2023-03-02T19:11:18.708Z,8.43
2023-03-02T19:13:45.383Z,8.35
2023-03-02T19:16:12.414Z,8.38
2023-03-02T19:18:39.392Z,8.37
2023-03-02T19:21:06.562Z,8.34
2023-03-02T19:23:33.298Z,8.28
2023-03-02T19:26:00.263Z,8.14
2023-03-02T19:28:27.588Z,8.08
2023-03-02T19:30:54.271Z,7.97
2023-03-02T19:33:21.020Z,7.84
2023-03-02T19:35:47.632Z,7.86
2023-03-02T19:38:14.267Z,7.90
2023-03-02T19:40:40.945Z,7.75
2023-03-02T19:43:08.002Z,7.78
2023-03-02T19:45:35.805Z,7.78
2023-03-02T19:48:03.828Z,7.63
2023-03-02T19:50:30.617Z,7.51
2023-03-02T19:52:58.323Z,7.50
2023-03-02T19:55:25.554Z,7.33
2023-03-02T19:57:59.609Z,7.32
2023-03-02T20:00:28.766Z,7.12
2023-03-02T20:02:56.024Z,7.00
2023-03-02T20:05:22.702Z,7.10
2023-03-02T20:07:49.454Z,6.92
2023-03-02T20:10:30.230Z,6.82
2023-03-02T20:12:57.252Z,6.68
2023-03-02T20:15:23.884Z,6.67
2023-03-02T20:17:50.583Z,6.69
2023-03-02T20:20:17.205Z,6.51
2023-03-02T20:22:45.502Z,6.36
2023-03-02T20:25:14.481Z,6.33
2023-03-02T20:27:41.850Z,6.44
2023-03-02T20:30:11.168Z,6.37
2023-03-02T20:32:37.838Z,6.16
2023-03-02T20:35:04.953Z,6.18
2023-03-02T20:37:31.862Z,6.25
2023-03-02T20:39:59.062Z,6.24
2023-03-02T20:42:25.729Z,6.27
2023-03-02T20:44:52.537Z,6.30
2023-03-02T20:47:19.580Z,6.25
2023-03-02T20:49:46.277Z,6.24
2023-03-02T20:52:12.982Z,6.10
2023-03-02T20:54:42.142Z,6.15
2023-03-02T20:57:09.272Z,6.09
2023-03-02T20:59:39.286Z,6.08
2023-03-02T21:02:06.170Z,5.94
2023-03-02T21:04:34.576Z,5.74
2023-03-02T21:07:01.719Z,5.78
2023-03-02T21:09:28.442Z,5.60
2023-03-02T21:11:57.107Z,5.54
2023-03-02T21:14:23.945Z,5.04
2023-03-02T21:16:50.616Z,4.97
2023-03-02T21:19:18.863Z,5.03
2023-03-02T21:21:46.350Z,5.18
2023-03-02T21:24:19.116Z,5.12
2023-03-02T21:26:47.852Z,5.08
2023-03-02T21:29:14.989Z,5.03
2023-03-02T21:31:43.895Z,4.83
2023-03-02T21:34:12.785Z,4.68
2023-03-02T21:36:39.504Z,4.52
2023-03-02T21:39:07.006Z,4.66
2023-03-02T21:41:38.032Z,4.62
2023-03-02T21:44:05.921Z,4.68
2023-03-02T21:46:34.937Z,4.81
2023-03-02T21:49:01.612Z,4.81
2023-03-02T21:51:28.380Z,4.75
2023-03-02T21:53:55.039Z,4.69
2023-03-02T21:56:24.650Z,4.72
2023-03-02T21:58:53.107Z,4.75
2023-03-02T22:01:20.929Z,4.56
2023-03-02T22:03:48.265Z,4.52
2023-03-02T22:06:20.441Z,4.63
2023-03-02T22:08:47.147Z,4.54
2023-03-02T22:11:39.621Z,4.54
2023-03-02T22:14:14.865Z,4.52
2023-03-02T22:16:45.164Z,4.40
2023-03-02T22:19:17.767Z,4.52
2023-03-02T22:21:47.923Z,4.52
2023-03-02T22:24:21.490Z,4.56
2023-03-02T22:26:55.587Z,4.43
2023-03-02T22:29:25.594Z,4.37
2023-03-02T22:31:55.162Z,4.40
2023-03-02T22:34:30.814Z,4.14
2023-03-02T22:37:03.227Z,3.71
2023-03-02T22:39:33.696Z,3.52
2023-03-02T22:42:21.395Z,3.98
2023-03-02T22:45:01.727Z,3.89
2023-03-02T22:47:28.459Z,3.88
2023-03-02T22:50:00.344Z,3.91
2023-03-02T22:52:37.167Z,3.88
2023-03-02T22:55:40.296Z,4.09
2023-03-02T22:58:27.719Z,3.98
2023-03-02T23:00:54.860Z,3.68
2023-03-02T23:03:25.115Z,3.43
2023-03-02T23:05:53.125Z,3.72
2023-03-02T23:08:28.655Z,3.83
2023-03-02T23:10:58.019Z,3.47
2023-03-02T23:13:31.050Z,3.23
2023-03-02T23:15:57.853Z,3.47
2023-03-02T23:18:29.884Z,3.59
2023-03-02T23:20:56.687Z,3.62
2023-03-02T23:23:26.634Z,3.44
2023-03-02T23:25:53.284Z,3.52
2023-03-02T23:28:19.868Z,3.50
2023-03-02T23:30:47.655Z,3.56
2023-03-02T23:33:14.236Z,3.51
2023-03-02T23:35:41.979Z,3.54
2023-03-02T23:38:08.732Z,3.41
2023-03-02T23:40:35.413Z,3.45
2023-03-02T23:43:02.346Z,3.34
2023-03-02T23:45:29.008Z,3.24
2023-03-02T23:47:55.622Z,3.26
2023-03-02T23:50:22.362Z,3.23
2023-03-02T23:52:49.325Z,3.16
2023-03-02T23:55:16.476Z,3.10
2023-03-02T23:57:43.092Z,3.13
